Airfield :
LOGIN :

Register | Disclaimer

   EN    FR    IT 

 










Legend :    VFR   Marginal VFR   IFR   Intensive IFR   Very Intensive IFR
Visi :
Ceiling :
>= 8 km
>= 3000ft
5 to 8 km
1000 to 3000 ft
1500m to 5 km
500 to 1000 ft
800 to 1500m
200 to 500 ft
< 800m
< 200 ft
Symbols :   Thunderstorms  Fog  Heavy snow  Heavy precipitations  Wind > 20 kt
SIGMETs :     Misc.  Thunderstorms  Icing  Turbulence  Mountain Waves  Volcanic Ashes







- Airport Elevation : 170 ft
- IATA code : KRP


EKKA - Karup

CURRENT METAR :
  • 222220Z AUTO 28015KT 270V350 9999NDV NCD 11/06 Q1015

EXPIRED METARs :
  • 222202Z AUTO 28015G26KT 270V350 9999NDV NCD 11/06 Q1015
  • 222150Z AUTO 29012KT 270V350 9999NDV NCD 11/06 Q1015
  • 222120Z AUTO 29015G27KT 270V350 9999NDV NCD 11/05 Q1015
  • 222111Z AUTO 28013G27KT 270V350 9999NDV NCD 11/06 Q1015
  • 222050Z AUTO 28013KT 270V350 9999NDV NCD 11/06 Q1015
  • 222020Z AUTO 28015KT 270V350 9999NDV FEW024/// 11/06 Q1015
  • 221950Z AUTO 27017G28KT 9999NDV BKN023/// 12/07 Q1015

TAF TAF EKKA
Valid from the 22 at 21:00 until the 23 at 18:00 UTC


222014Z 2221/2318 30015G25KT 9999 SCT020
TEMPO 2221/2308 29012KT
No reported NOTAMs for that airfield.



MET'MAP, your aeronautical weather chart ! - Copyright ORBIFLY December 2007 - Disclaimer

ORBIFLY MET'MAP TEAM :

Programming & Development : Alexandra Zaïnal
Concept & Development : Baudouin d'Aumeries
Co-Development & Prog : Marc-Olivier Méhu
Technical & hardware support : Manuel Goepfert

Contact : metmap@orbifly.com




SOURCES & CREDITS :

   NOAA